sensor_id;sensor_type;location;lat;lon;timestamp;pressure;altitude;pressure_sealevel;temperature;humidity
64886;BME280;51514;52.206;5.114;2023-04-06T00:01:08;101890.75;;;6.17;60.20
64886;BME280;51514;52.206;5.114;2023-04-06T00:03:34;101900.50;;;6.18;59.83
64886;BME280;51514;52.206;5.114;2023-04-06T00:05:59;101896.97;;;6.17;59.57
64886;BME280;51514;52.206;5.114;2023-04-06T00:08:25;101889.94;;;6.16;59.46
64886;BME280;51514;52.206;5.114;2023-04-06T00:10:51;101888.09;;;6.17;59.31
64886;BME280;51514;52.206;5.114;2023-04-06T00:13:16;101881.03;;;6.16;59.88
64886;BME280;51514;52.206;5.114;2023-04-06T00:15:41;101880.28;;;6.14;59.52
64886;BME280;51514;52.206;5.114;2023-04-06T00:18:07;101883.91;;;6.13;60.83
64886;BME280;51514;52.206;5.114;2023-04-06T00:20:32;101880.38;;;6.12;61.41
64886;BME280;51514;52.206;5.114;2023-04-06T00:22:58;101881.53;;;6.08;61.76
64886;BME280;51514;52.206;5.114;2023-04-06T00:25:23;101873.75;;;6.05;61.97
64886;BME280;51514;52.206;5.114;2023-04-06T00:27:48;101865.91;;;6.02;61.94
64886;BME280;51514;52.206;5.114;2023-04-06T00:30:14;101870.50;;;6.00;62.13
64886;BME280;51514;52.206;5.114;2023-04-06T00:32:39;101873.28;;;5.99;62.39
64886;BME280;51514;52.206;5.114;2023-04-06T00:35:05;101862.03;;;5.94;62.16
64886;BME280;51514;52.206;5.114;2023-04-06T00:37:31;101857.66;;;5.93;62.45
64886;BME280;51514;52.206;5.114;2023-04-06T00:39:56;101856.03;;;5.90;62.34
64886;BME280;51514;52.206;5.114;2023-04-06T00:42:22;101854.31;;;5.89;62.14
64886;BME280;51514;52.206;5.114;2023-04-06T00:45:00;101850.78;;;5.89;60.81
64886;BME280;51514;52.206;5.114;2023-04-06T00:47:26;101852.50;;;5.90;61.26
64886;BME280;51514;52.206;5.114;2023-04-06T00:49:53;101848.84;;;5.91;60.98
64886;BME280;51514;52.206;5.114;2023-04-06T00:52:19;101843.41;;;5.92;60.93
64886;BME280;51514;52.206;5.114;2023-04-06T00:54:45;101849.53;;;5.94;61.13
64886;BME280;51514;52.206;5.114;2023-04-06T00:57:14;101847.69;;;5.95;61.69
64886;BME280;51514;52.206;5.114;2023-04-06T00:59:40;101838.81;;;5.94;62.42
64886;BME280;51514;52.206;5.114;2023-04-06T01:02:06;101840.72;;;5.92;61.93
64886;BME280;51514;52.206;5.114;2023-04-06T01:04:32;101834.31;;;5.95;61.76
64886;BME280;51514;52.206;5.114;2023-04-06T01:06:57;101828.09;;;5.94;62.20
64886;BME280;51514;52.206;5.114;2023-04-06T01:09:23;101815.69;;;5.93;62.18
64886;BME280;51514;52.206;5.114;2023-04-06T01:11:48;101810.34;;;5.93;63.08
64886;BME280;51514;52.206;5.114;2023-04-06T01:14:13;101812.03;;;5.94;62.99
64886;BME280;51514;52.206;5.114;2023-04-06T01:16:39;101811.06;;;5.95;63.48
64886;BME280;51514;52.206;5.114;2023-04-06T01:19:09;101816.53;;;5.94;63.24
64886;BME280;51514;52.206;5.114;2023-04-06T01:21:35;101808.63;;;5.92;64.05
64886;BME280;51514;52.206;5.114;2023-04-06T01:24:00;101812.03;;;5.94;63.59
64886;BME280;51514;52.206;5.114;2023-04-06T01:26:25;101806.69;;;5.94;63.80
64886;BME280;51514;52.206;5.114;2023-04-06T01:28:52;101808.50;;;5.94;63.80
64886;BME280;51514;52.206;5.114;2023-04-06T01:31:17;101806.78;;;5.93;64.05
64886;BME280;51514;52.206;5.114;2023-04-06T01:33:42;101800.34;;;5.95;64.42
64886;BME280;51514;52.206;5.114;2023-04-06T01:36:08;101800.25;;;5.97;64.41
64886;BME280;51514;52.206;5.114;2023-04-06T01:38:33;101793.06;;;5.97;64.54
64886;BME280;51514;52.206;5.114;2023-04-06T01:40:59;101791.50;;;5.95;63.86
64886;BME280;51514;52.206;5.114;2023-04-06T01:43:24;101785.03;;;5.97;64.17
64886;BME280;51514;52.206;5.114;2023-04-06T01:45:50;101785.81;;;5.99;64.21
64886;BME280;51514;52.206;5.114;2023-04-06T01:48:16;101785.81;;;5.99;63.96
64886;BME280;51514;52.206;5.114;2023-04-06T01:50:41;101777.56;;;6.02;62.97
64886;BME280;51514;52.206;5.114;2023-04-06T01:53:07;101783.53;;;6.06;63.23
64886;BME280;51514;52.206;5.114;2023-04-06T01:55:32;101778.19;;;6.06;62.14
64886;BME280;51514;52.206;5.114;2023-04-06T01:57:57;101775.41;;;6.07;62.04
64886;BME280;51514;52.206;5.114;2023-04-06T02:00:22;101777.03;;;6.10;62.32
64886;BME280;51514;52.206;5.114;2023-04-06T02:02:48;101776.16;;;6.09;62.65
64886;BME280;51514;52.206;5.114;2023-04-06T02:05:13;101771.47;;;6.13;62.38
64886;BME280;51514;52.206;5.114;2023-04-06T02:07:38;101766.88;;;6.15;63.19
64886;BME280;51514;52.206;5.114;2023-04-06T02:10:12;101760.66;;;6.14;62.29
64886;BME280;51514;52.206;5.114;2023-04-06T02:12:37;101753.25;;;6.18;62.22
64886;BME280;51514;52.206;5.114;2023-04-06T02:15:03;101755.72;;;6.21;62.73
64886;BME280;51514;52.206;5.114;2023-04-06T02:17:28;101744.13;;;6.20;62.03
64886;BME280;51514;52.206;5.114;2023-04-06T02:19:54;101739.63;;;6.21;61.69
64886;BME280;51514;52.206;5.114;2023-04-06T02:22:19;101745.66;;;6.25;62.69
64886;BME280;51514;52.206;5.114;2023-04-06T02:24:44;101740.03;;;6.28;63.65
64886;BME280;51514;52.206;5.114;2023-04-06T02:27:10;101738.13;;;6.30;64.20
64886;BME280;51514;52.206;5.114;2023-04-06T02:29:35;101738.13;;;6.30;64.08
64886;BME280;51514;52.206;5.114;2023-04-06T02:32:01;101743.47;;;6.30;62.96
64886;BME280;51514;52.206;5.114;2023-04-06T02:34:26;101730.84;;;6.32;62.41
64886;BME280;51514;52.206;5.114;2023-04-06T02:36:51;101733.41;;;6.33;62.97
64886;BME280;51514;52.206;5.114;2023-04-06T02:39:17;101738.56;;;6.36;63.00
64886;BME280;51514;52.206;5.114;2023-04-06T02:41:42;101734.06;;;6.37;63.56
64886;BME280;51514;52.206;5.114;2023-04-06T02:44:08;101726.03;;;6.37;63.31
64886;BME280;51514;52.206;5.114;2023-04-06T02:46:34;101728.56;;;6.38;63.56
64886;BME280;51514;52.206;5.114;2023-04-06T02:49:00;101729.41;;;6.39;64.15
64886;BME280;51514;52.206;5.114;2023-04-06T02:51:29;101716.16;;;6.37;63.69
64886;BME280;51514;52.206;5.114;2023-04-06T02:53:54;101708.75;;;6.41;63.44
64886;BME280;51514;52.206;5.114;2023-04-06T02:56:19;101703.19;;;6.44;63.19
64886;BME280;51514;52.206;5.114;2023-04-06T02:58:46;101703.81;;;6.47;63.19
64886;BME280;51514;52.206;5.114;2023-04-06T03:01:12;101698.34;;;6.49;62.90
64886;BME280;51514;52.206;5.114;2023-04-06T03:03:37;101685.56;;;6.52;63.17
64886;BME280;51514;52.206;5.114;2023-04-06T03:06:02;101706.16;;;6.52;62.79
64886;BME280;51514;52.206;5.114;2023-04-06T03:08:28;101703.34;;;6.53;63.51
64886;BME280;51514;52.206;5.114;2023-04-06T03:10:54;101696.06;;;6.55;63.33
64886;BME280;51514;52.206;5.114;2023-04-06T03:13:20;101696.94;;;6.56;63.59
64886;BME280;51514;52.206;5.114;2023-04-06T03:15:45;101697.78;;;6.56;63.14
64886;BME280;51514;52.206;5.114;2023-04-06T03:18:10;101697.69;;;6.58;63.08
64886;BME280;51514;52.206;5.114;2023-04-06T03:20:36;101695.00;;;6.58;62.20
64886;BME280;51514;52.206;5.114;2023-04-06T03:23:01;101693.19;;;6.58;62.45
64886;BME280;51514;52.206;5.114;2023-04-06T03:25:27;101691.34;;;6.59;61.81
64886;BME280;51514;52.206;5.114;2023-04-06T03:27:52;101685.25;;;6.57;62.62
64886;BME280;51514;52.206;5.114;2023-04-06T03:30:17;101687.81;;;6.58;62.28
64886;BME280;51514;52.206;5.114;2023-04-06T03:32:43;101684.38;;;6.56;62.92
64886;BME280;51514;52.206;5.114;2023-04-06T03:35:09;101677.22;;;6.57;63.45
64886;BME280;51514;52.206;5.114;2023-04-06T03:37:35;101678.94;;;6.58;62.29
64886;BME280;51514;52.206;5.114;2023-04-06T03:40:00;101673.56;;;6.58;61.91
64886;BME280;51514;52.206;5.114;2023-04-06T03:42:26;101674.63;;;6.55;62.58
64886;BME280;51514;52.206;5.114;2023-04-06T03:44:51;101671.09;;;6.55;62.63
64886;BME280;51514;52.206;5.114;2023-04-06T03:47:17;101668.41;;;6.55;62.68
64886;BME280;51514;52.206;5.114;2023-04-06T03:49:42;101666.72;;;6.54;62.73
64886;BME280;51514;52.206;5.114;2023-04-06T03:52:07;101664.03;;;6.54;62.30
64886;BME280;51514;52.206;5.114;2023-04-06T03:54:33;101661.25;;;6.55;63.09
64886;BME280;51514;52.206;5.114;2023-04-06T03:56:58;101668.53;;;6.53;62.70
64886;BME280;51514;52.206;5.114;2023-04-06T03:59:23;101666.72;;;6.54;63.29
64886;BME280;51514;52.206;5.114;2023-04-06T04:01:48;101665.00;;;6.53;63.13
64886;BME280;51514;52.206;5.114;2023-04-06T04:04:15;101660.59;;;6.52;62.86
64886;BME280;51514;52.206;5.114;2023-04-06T04:06:40;101658.69;;;6.54;62.52
64886;BME280;51514;52.206;5.114;2023-04-06T04:09:05;101659.41;;;6.56;62.56
64886;BME280;51514;52.206;5.114;2023-04-06T04:11:31;101661.13;;;6.57;62.57
64886;BME280;51514;52.206;5.114;2023-04-06T04:13:56;101658.34;;;6.58;62.58
64886;BME280;51514;52.206;5.114;2023-04-06T04:16:21;101653.59;;;6.62;63.26
64886;BME280;51514;52.206;5.114;2023-04-06T04:18:47;101651.88;;;6.61;62.46
64886;BME280;51514;52.206;5.114;2023-04-06T04:21:13;101651.88;;;6.61;62.76
64886;BME280;51514;52.206;5.114;2023-04-06T04:23:39;101662.50;;;6.63;63.27
64886;BME280;51514;52.206;5.114;2023-04-06T04:26:04;101660.66;;;6.63;63.25
64886;BME280;51514;52.206;5.114;2023-04-06T04:28:30;101650.16;;;6.60;63.14
64886;BME280;51514;52.206;5.114;2023-04-06T04:30:55;101655.53;;;6.60;63.12
64886;BME280;51514;52.206;5.114;2023-04-06T04:33:20;101653.94;;;6.57;62.87
64886;BME280;51514;52.206;5.114;2023-04-06T04:35:46;101654.81;;;6.58;63.07
64886;BME280;51514;52.206;5.114;2023-04-06T04:38:11;101652.13;;;6.58;63.44
64886;BME280;51514;52.206;5.114;2023-04-06T04:40:36;101652.34;;;6.55;63.79
64886;BME280;51514;52.206;5.114;2023-04-06T04:43:02;101655.88;;;6.55;63.42
64886;BME280;51514;52.206;5.114;2023-04-06T04:45:27;101649.88;;;6.52;62.51
64886;BME280;51514;52.206;5.114;2023-04-06T04:47:52;101652.56;;;6.52;63.57
64886;BME280;51514;52.206;5.114;2023-04-06T04:50:18;101652.06;;;6.47;62.01
64886;BME280;51514;52.206;5.114;2023-04-06T04:52:43;101649.50;;;6.45;62.68
64886;BME280;51514;52.206;5.114;2023-04-06T04:55:08;101639.75;;;6.44;62.85
64886;BME280;51514;52.206;5.114;2023-04-06T04:57:34;101643.38;;;6.43;62.61
64886;BME280;51514;52.206;5.114;2023-04-06T04:59:59;101633.41;;;6.45;63.04
64886;BME280;51514;52.206;5.114;2023-04-06T05:02:24;101640.72;;;6.43;63.25
64886;BME280;51514;52.206;5.114;2023-04-06T05:04:50;101640.59;;;6.45;63.51
64886;BME280;51514;52.206;5.114;2023-04-06T05:07:15;101638.66;;;6.47;63.92
64886;BME280;51514;52.206;5.114;2023-04-06T05:09:43;101641.25;;;6.48;63.38
64886;BME280;51514;52.206;5.114;2023-04-06T05:12:09;101645.50;;;6.51;63.16
64886;BME280;51514;52.206;5.114;2023-04-06T05:14:34;101642.81;;;6.51;63.31
64886;BME280;51514;52.206;5.114;2023-04-06T05:17:00;101642.72;;;6.52;63.31
64886;BME280;51514;52.206;5.114;2023-04-06T05:19:25;101641.63;;;6.55;64.20
64886;BME280;51514;52.206;5.114;2023-04-06T05:21:50;101647.00;;;6.55;64.01
64886;BME280;51514;52.206;5.114;2023-04-06T05:24:16;101643.25;;;6.57;64.31
64886;BME280;51514;52.206;5.114;2023-04-06T05:26:41;101642.50;;;6.55;64.40
64886;BME280;51514;52.206;5.114;2023-04-06T05:29:06;101642.28;;;6.58;65.03
64886;BME280;51514;52.206;5.114;2023-04-06T05:31:32;101634.09;;;6.60;64.58
64886;BME280;51514;52.206;5.114;2023-04-06T05:33:57;101636.78;;;6.60;64.30
64886;BME280;51514;52.206;5.114;2023-04-06T05:36:23;101634.22;;;6.58;64.17
64886;BME280;51514;52.206;5.114;2023-04-06T05:38:48;101634.09;;;6.60;64.82
64886;BME280;51514;52.206;5.114;2023-04-06T05:41:15;101641.41;;;6.58;64.11
64886;BME280;51514;52.206;5.114;2023-04-06T05:43:41;101639.44;;;6.60;64.55
64886;BME280;51514;52.206;5.114;2023-04-06T05:46:06;101637.03;;;6.57;64.57
64886;BME280;51514;52.206;5.114;2023-04-06T05:48:31;101636.28;;;6.55;64.40
64886;BME280;51514;52.206;5.114;2023-04-06T05:50:57;101633.38;;;6.58;64.72
64886;BME280;51514;52.206;5.114;2023-04-06T05:53:22;101634.34;;;6.57;64.60
64886;BME280;51514;52.206;5.114;2023-04-06T05:55:47;101632.63;;;6.56;63.97
64886;BME280;51514;52.206;5.114;2023-04-06T05:58:13;101645.81;;;6.59;64.54
64886;BME280;51514;52.206;5.114;2023-04-06T06:00:38;101638.47;;;6.61;64.67
64886;BME280;51514;52.206;5.114;2023-04-06T06:03:03;101637.50;;;6.62;64.57
64886;BME280;51514;52.206;5.114;2023-04-06T06:05:30;101632.28;;;6.60;64.75
64886;BME280;51514;52.206;5.114;2023-04-06T06:07:56;101638.25;;;6.64;64.76
64886;BME280;51514;52.206;5.114;2023-04-06T06:10:21;101634.50;;;6.67;64.72
64886;BME280;51514;52.206;5.114;2023-04-06T06:12:46;101633.19;;;6.72;64.97
64886;BME280;51514;52.206;5.114;2023-04-06T06:15:12;101641.75;;;6.77;64.97
64886;BME280;51514;52.206;5.114;2023-04-06T06:17:37;101639.56;;;6.82;65.09
64886;BME280;51514;52.206;5.114;2023-04-06T06:20:05;101636.56;;;6.87;64.91
64886;BME280;51514;52.206;5.114;2023-04-06T06:22:31;101630.97;;;6.90;64.53
64886;BME280;51514;52.206;5.114;2023-04-06T06:24:56;101630.59;;;6.94;64.85
64886;BME280;51514;52.206;5.114;2023-04-06T06:27:21;101625.13;;;6.96;65.69
64886;BME280;51514;52.206;5.114;2023-04-06T06:29:46;101623.81;;;7.02;65.09
64886;BME280;51514;52.206;5.114;2023-04-06T06:32:12;101622.72;;;7.04;65.00
64886;BME280;51514;52.206;5.114;2023-04-06T06:34:37;101625.16;;;7.07;65.70
64886;BME280;51514;52.206;5.114;2023-04-06T06:37:02;101629.06;;;7.14;66.06
64886;BME280;51514;52.206;5.114;2023-04-06T06:39:28;101631.75;;;7.14;65.52
64886;BME280;51514;52.206;5.114;2023-04-06T06:41:53;101630.78;;;7.15;65.47
64886;BME280;51514;52.206;5.114;2023-04-06T06:44:20;101630.66;;;7.17;65.08
64886;BME280;51514;52.206;5.114;2023-04-06T06:46:47;101630.06;;;7.13;65.52
64886;BME280;51514;52.206;5.114;2023-04-06T06:49:12;101628.25;;;7.14;65.70
64886;BME280;51514;52.206;5.114;2023-04-06T06:51:37;101626.53;;;7.13;65.22
64886;BME280;51514;52.206;5.114;2023-04-06T06:54:03;101634.59;;;7.13;65.29
64886;BME280;51514;52.206;5.114;2023-04-06T06:56:28;101633.34;;;7.17;64.96
64886;BME280;51514;52.206;5.114;2023-04-06T06:58:53;101628.63;;;7.20;65.50
64886;BME280;51514;52.206;5.114;2023-04-06T07:01:19;101625.81;;;7.22;65.17
64886;BME280;51514;52.206;5.114;2023-04-06T07:03:45;101624.75;;;7.24;65.26
64886;BME280;51514;52.206;5.114;2023-04-06T07:06:10;101616.31;;;7.29;64.88
64886;BME280;51514;52.206;5.114;2023-04-06T07:08:36;101617.91;;;7.31;65.78
64886;BME280;51514;52.206;5.114;2023-04-06T07:11:01;101618.53;;;7.35;65.71
64886;BME280;51514;52.206;5.114;2023-04-06T07:13:27;101607.06;;;7.33;64.92
64886;BME280;51514;52.206;5.114;2023-04-06T07:15:52;101611.47;;;7.34;65.16
64886;BME280;51514;52.206;5.114;2023-04-06T07:18:19;101605.13;;;7.35;64.23
64886;BME280;51514;52.206;5.114;2023-04-06T07:20:44;101610.00;;;7.41;65.24
64886;BME280;51514;52.206;5.114;2023-04-06T07:23:10;101612.72;;;7.52;65.43
64886;BME280;51514;52.206;5.114;2023-04-06T07:25:36;101608.56;;;7.59;65.50
64886;BME280;51514;52.206;5.114;2023-04-06T07:28:02;101605.63;;;7.62;65.16
64886;BME280;51514;52.206;5.114;2023-04-06T07:30:27;101611.50;;;7.67;64.68
64886;BME280;51514;52.206;5.114;2023-04-06T07:32:54;101605.53;;;7.75;65.13
64886;BME280;51514;52.206;5.114;2023-04-06T07:35:21;101611.97;;;7.84;66.06
64886;BME280;51514;52.206;5.114;2023-04-06T07:37:46;101604.44;;;7.89;65.44
64886;BME280;51514;52.206;5.114;2023-04-06T07:40:11;101608.94;;;7.88;64.63
64886;BME280;51514;52.206;5.114;2023-04-06T07:42:37;101603.31;;;7.91;65.24
64886;BME280;51514;52.206;5.114;2023-04-06T07:45:02;101605.63;;;7.96;64.59
64886;BME280;51514;52.206;5.114;2023-04-06T07:47:28;101598.91;;;8.01;65.20
64886;BME280;51514;52.206;5.114;2023-04-06T07:49:54;101601.22;;;8.06;63.88
64886;BME280;51514;52.206;5.114;2023-04-06T07:52:21;101608.19;;;8.09;63.74
64886;BME280;51514;52.206;5.114;2023-04-06T07:54:46;101601.34;;;8.16;64.44
64886;BME280;51514;52.206;5.114;2023-04-06T07:57:13;101604.75;;;8.18;63.92
64886;BME280;51514;52.206;5.114;2023-04-06T07:59:38;101602.41;;;8.24;64.69
64886;BME280;51514;52.206;5.114;2023-04-06T08:02:04;101604.63;;;8.30;64.13
64886;BME280;51514;52.206;5.114;2023-04-06T08:04:29;101601.94;;;8.41;65.46
64886;BME280;51514;52.206;5.114;2023-04-06T08:06:55;101605.59;;;8.40;64.13
64886;BME280;51514;52.206;5.114;2023-04-06T08:09:20;101610.44;;;8.47;64.38
64886;BME280;51514;52.206;5.114;2023-04-06T08:11:45;101603.00;;;8.50;63.43
64886;BME280;51514;52.206;5.114;2023-04-06T08:14:12;101603.22;;;8.58;64.51
64886;BME280;51514;52.206;5.114;2023-04-06T08:16:38;101605.91;;;8.58;62.92
64886;BME280;51514;52.206;5.114;2023-04-06T08:19:03;101601.13;;;8.62;63.68
64886;BME280;51514;52.206;5.114;2023-04-06T08:21:29;101601.59;;;8.67;63.64
64886;BME280;51514;52.206;5.114;2023-04-06T08:23:54;101598.53;;;8.71;63.26
64886;BME280;51514;52.206;5.114;2023-04-06T08:26:19;101595.91;;;8.81;64.09
64886;BME280;51514;52.206;5.114;2023-04-06T08:28:46;101599.53;;;8.91;64.07
64886;BME280;51514;52.206;5.114;2023-04-06T08:31:11;101603.16;;;9.01;64.56
64886;BME280;51514;52.206;5.114;2023-04-06T08:33:36;101597.72;;;9.12;64.31
64886;BME280;51514;52.206;5.114;2023-04-06T08:36:13;101588.47;;;9.26;64.45
64886;BME280;51514;52.206;5.114;2023-04-06T08:38:40;101593.00;;;9.26;63.33
64886;BME280;51514;52.206;5.114;2023-04-06T08:41:10;101586.38;;;9.30;63.94
64886;BME280;51514;52.206;5.114;2023-04-06T08:43:43;101587.78;;;9.34;64.23
64886;BME280;51514;52.206;5.114;2023-04-06T08:46:10;101582.88;;;9.39;63.91
64886;BME280;51514;52.206;5.114;2023-04-06T08:48:36;101589.56;;;9.44;64.54
64886;BME280;51514;52.206;5.114;2023-04-06T08:51:02;101597.25;;;9.49;64.35
64886;BME280;51514;52.206;5.114;2023-04-06T08:53:28;101590.28;;;9.46;63.52
64886;BME280;51514;52.206;5.114;2023-04-06T08:55:54;101598.47;;;9.45;63.67
64886;BME280;51514;52.206;5.114;2023-04-06T08:58:21;101594.22;;;9.42;63.61
64886;BME280;51514;52.206;5.114;2023-04-06T09:00:47;101599.88;;;9.39;64.50
64886;BME280;51514;52.206;5.114;2023-04-06T09:03:13;101594.22;;;9.42;64.49
64886;BME280;51514;52.206;5.114;2023-04-06T09:05:39;101597.75;;;9.43;64.37
64886;BME280;51514;52.206;5.114;2023-04-06T09:08:05;101598.22;;;9.48;64.96
64886;BME280;51514;52.206;5.114;2023-04-06T09:10:31;101600.66;;;9.51;64.93
64886;BME280;51514;52.206;5.114;2023-04-06T09:13:05;101599.00;;;9.60;65.57
64886;BME280;51514;52.206;5.114;2023-04-06T09:15:30;101600.84;;;9.59;64.75
64886;BME280;51514;52.206;5.114;2023-04-06T09:17:56;101603.06;;;9.54;63.55
64886;BME280;51514;52.206;5.114;2023-04-06T09:20:23;101601.66;;;9.50;62.75
64886;BME280;51514;52.206;5.114;2023-04-06T09:22:51;101610.22;;;9.44;63.65
64886;BME280;51514;52.206;5.114;2023-04-06T09:25:23;101605.25;;;9.39;64.27
64886;BME280;51514;52.206;5.114;2023-04-06T09:28:02;101615.06;;;9.40;65.10
64886;BME280;51514;52.206;5.114;2023-04-06T09:30:28;101607.81;;;9.41;66.28
64886;BME280;51514;52.206;5.114;2023-04-06T09:32:56;101609.50;;;9.42;66.29
64886;BME280;51514;52.206;5.114;2023-04-06T09:35:22;101612.06;;;9.43;67.02
64886;BME280;51514;52.206;5.114;2023-04-06T09:37:50;101604.41;;;9.39;67.66
64886;BME280;51514;52.206;5.114;2023-04-06T09:40:17;101603.44;;;9.40;67.78
64886;BME280;51514;52.206;5.114;2023-04-06T09:42:48;101606.03;;;9.51;69.86
64886;BME280;51514;52.206;5.114;2023-04-06T09:45:16;101607.03;;;9.50;68.44
64886;BME280;51514;52.206;5.114;2023-04-06T09:47:45;101607.03;;;9.50;69.25
64886;BME280;51514;52.206;5.114;2023-04-06T09:50:12;101608.06;;;9.59;70.42
64886;BME280;51514;52.206;5.114;2023-04-06T09:52:41;101614.72;;;9.64;71.24
64886;BME280;51514;52.206;5.114;2023-04-06T09:55:08;101601.75;;;9.69;70.31
64886;BME280;51514;52.206;5.114;2023-04-06T09:58:04;101601.88;;;9.68;70.19
64886;BME280;51514;52.206;5.114;2023-04-06T10:00:32;101606.56;;;9.75;69.72
64886;BME280;51514;52.206;5.114;2023-04-06T10:06:00;101600.06;;;9.78;70.49
64886;BME280;51514;52.206;5.114;2023-04-06T10:08:33;101606.88;;;9.72;69.75
64886;BME280;51514;52.206;5.114;2023-04-06T10:11:01;101600.63;;;9.72;71.27
64886;BME280;51514;52.206;5.114;2023-04-06T10:13:27;101607.13;;;9.69;71.96
64886;BME280;51514;52.206;5.114;2023-04-06T10:15:53;101601.75;;;9.69;73.08
64886;BME280;51514;52.206;5.114;2023-04-06T10:18:20;101594.63;;;9.68;73.30
64886;BME280;51514;52.206;5.114;2023-04-06T10:20:51;101597.78;;;9.73;75.95
64886;BME280;51514;52.206;5.114;2023-04-06T10:26:02;101593.91;;;9.66;75.42
64886;BME280;51514;52.206;5.114;2023-04-06T10:28:33;101604.94;;;9.63;76.11
64886;BME280;51514;52.206;5.114;2023-04-06T10:31:04;101594.19;;;9.63;77.15
64886;BME280;51514;52.206;5.114;2023-04-06T10:33:29;101598.44;;;9.66;77.48
64886;BME280;51514;52.206;5.114;2023-04-06T10:35:55;101593.66;;;9.69;78.08
64886;BME280;51514;52.206;5.114;2023-04-06T10:38:37;101589.53;;;9.65;78.29
64886;BME280;51514;52.206;5.114;2023-04-06T10:41:10;101593.28;;;9.53;78.73
64886;BME280;51514;52.206;5.114;2023-04-06T10:43:38;101587.47;;;9.48;78.36
64886;BME280;51514;52.206;5.114;2023-04-06T10:46:05;101581.47;;;9.44;81.58
64886;BME280;51514;52.206;5.114;2023-04-06T10:48:38;101582.59;;;9.42;80.50
64886;BME280;51514;52.206;5.114;2023-04-06T10:51:10;101584.28;;;9.43;80.80
64886;BME280;51514;52.206;5.114;2023-04-06T10:53:36;101581.91;;;9.40;82.18
64886;BME280;51514;52.206;5.114;2023-04-06T10:56:02;101573.28;;;9.46;83.33
64886;BME280;51514;52.206;5.114;2023-04-06T10:58:28;101573.53;;;9.43;83.97
64886;BME280;51514;52.206;5.114;2023-04-06T11:00:54;101571.56;;;9.45;83.54
64886;BME280;51514;52.206;5.114;2023-04-06T11:03:20;101567.63;;;9.49;84.94
64886;BME280;51514;52.206;5.114;2023-04-06T11:05:47;101560.38;;;9.40;84.49
64886;BME280;51514;52.206;5.114;2023-04-06T11:08:26;101562.06;;;9.41;85.21
64886;BME280;51514;52.206;5.114;2023-04-06T11:10:51;101560.94;;;9.43;86.61
64886;BME280;51514;52.206;5.114;2023-04-06T11:13:17;101556.22;;;9.36;86.21
64886;BME280;51514;52.206;5.114;2023-04-06T11:15:42;101555.25;;;9.37;86.50
64886;BME280;51514;52.206;5.114;2023-04-06T11:18:08;101551.94;;;9.33;86.54
64886;BME280;51514;52.206;5.114;2023-04-06T11:20:33;101556.03;;;9.28;86.78
64886;BME280;51514;52.206;5.114;2023-04-06T11:22:58;101547.00;;;9.29;87.51
64886;BME280;51514;52.206;5.114;2023-04-06T11:25:24;101547.97;;;9.28;87.93
64886;BME280;51514;52.206;5.114;2023-04-06T11:27:51;101554.84;;;9.21;87.88
64886;BME280;51514;52.206;5.114;2023-04-06T11:30:17;101545.41;;;9.26;88.64
64886;BME280;51514;52.206;5.114;2023-04-06T11:32:43;101549.38;;;9.32;89.16
64886;BME280;51514;52.206;5.114;2023-04-06T11:35:22;101534.69;;;9.36;89.52
64886;BME280;51514;52.206;5.114;2023-04-06T11:37:51;101548.28;;;9.34;88.99
64886;BME280;51514;52.206;5.114;2023-04-06T11:40:21;101537.34;;;9.26;88.28
64886;BME280;51514;52.206;5.114;2023-04-06T11:42:54;101543.81;;;9.24;90.05
64886;BME280;51514;52.206;5.114;2023-04-06T11:45:20;101534.78;;;9.25;90.24
64886;BME280;51514;52.206;5.114;2023-04-06T11:47:55;101537.00;;;9.20;91.42
64886;BME280;51514;52.206;5.114;2023-04-06T11:50:21;101525.53;;;9.18;91.23
64886;BME280;51514;52.206;5.114;2023-04-06T11:52:58;101527.09;;;9.20;91.76
64886;BME280;51514;52.206;5.114;2023-04-06T11:55:24;101522.22;;;9.35;93.90
64886;BME280;51514;52.206;5.114;2023-04-06T11:57:50;101519.09;;;9.30;92.46
64886;BME280;51514;52.206;5.114;2023-04-06T12:00:17;101523.63;;;9.29;92.29
64886;BME280;51514;52.206;5.114;2023-04-06T12:02:45;101514.38;;;9.22;91.86
64886;BME280;51514;52.206;5.114;2023-04-06T12:05:11;101523.84;;;9.17;92.37
64886;BME280;51514;52.206;5.114;2023-04-06T12:07:36;101522.13;;;9.15;92.01
64886;BME280;51514;52.206;5.114;2023-04-06T12:10:02;101518.44;;;9.17;92.91
64886;BME280;51514;52.206;5.114;2023-04-06T12:12:28;101520.16;;;9.18;92.67
64886;BME280;51514;52.206;5.114;2023-04-06T12:14:54;101524.09;;;9.13;93.42
64886;BME280;51514;52.206;5.114;2023-04-06T12:17:20;101515.72;;;9.07;92.52
64886;BME280;51514;52.206;5.114;2023-04-06T12:19:45;101512.16;;;9.06;92.59
64886;BME280;51514;52.206;5.114;2023-04-06T12:22:11;101515.59;;;9.08;93.11
64886;BME280;51514;52.206;5.114;2023-04-06T12:24:36;101511.88;;;9.09;94.51
64886;BME280;51514;52.206;5.114;2023-04-06T12:27:02;101516.09;;;9.02;93.96
64886;BME280;51514;52.206;5.114;2023-04-06T12:29:28;101515.66;;;8.97;93.93
64886;BME280;51514;52.206;5.114;2023-04-06T12:31:53;101511.75;;;8.90;94.89
64886;BME280;51514;52.206;5.114;2023-04-06T12:34:18;101515.25;;;9.02;95.34
64886;BME280;51514;52.206;5.114;2023-04-06T12:36:44;101510.72;;;9.02;96.17
64886;BME280;51514;52.206;5.114;2023-04-06T12:39:09;101502.03;;;8.99;94.77
64886;BME280;51514;52.206;5.114;2023-04-06T12:41:36;101504.16;;;8.95;94.73
64886;BME280;51514;52.206;5.114;2023-04-06T12:44:01;101503.31;;;8.95;95.60
64886;BME280;51514;52.206;5.114;2023-04-06T12:46:27;101507.31;;;9.00;97.00
64886;BME280;51514;52.206;5.114;2023-04-06T12:48:56;101505.47;;;9.01;96.41
64886;BME280;51514;52.206;5.114;2023-04-06T12:51:22;101500.81;;;9.03;96.02
64886;BME280;51514;52.206;5.114;2023-04-06T12:53:48;101496.75;;;9.08;96.92
64886;BME280;51514;52.206;5.114;2023-04-06T12:56:16;101492.88;;;9.01;96.13
64886;BME280;51514;52.206;5.114;2023-04-06T12:58:46;101497.53;;;8.99;96.32
64886;BME280;51514;52.206;5.114;2023-04-06T13:01:12;101491.44;;;8.97;96.08